Time;durP1;ratioP1;P1;durP2;ratioP2;P2;SDS_P1;SDS_P2;PMS_P1;PMS_P2;Temp;Humidity;BMP_temperature;BMP_pressure;BME280_temperature;BME280_humidity;BME280_pressure;Samples;Min_cycle;Max_cycle;Signal;HPM_P1;HPM_P2
2022/08/10 00:00:54;;;;;;;6.70;3.02;;;;;;;20.48;75.88;99384.71;1745729;82;21019;-84
2022/08/10 00:03:21;;;;;;;6.85;3.27;;;;;;;20.53;76.33;99387.06;1745558;82;21003;-84
2022/08/10 00:05:48;;;;;;;4.92;2.95;;;;;;;20.48;77.64;99380.75;1744785;82;21035;-85
2022/08/10 00:08:16;;;;;;;5.90;3.22;;;;;;;20.51;76.07;99385.83;1745507;82;21011;-84
2022/08/10 00:10:42;;;;;;;5.78;3.40;;;;;;;20.52;77.48;99383.58;1710356;84;21011;-84
2022/08/10 00:13:09;;;;;;;5.47;3.47;;;;;;;20.58;76.38;99387.64;1744022;82;20998;-83
2022/08/10 00:15:35;;;;;;;5.47;3.62;;;;;;;20.56;76.22;99382.45;1745549;82;21050;-85
2022/08/10 00:18:02;;;;;;;8.58;3.90;;;;;;;20.57;76.82;99386.80;1724467;82;21114;-85
2022/08/10 00:20:29;;;;;;;6.05;3.83;;;;;;;20.54;76.16;99391.41;1715001;84;20974;-84
2022/08/10 00:22:55;;;;;;;6.40;3.90;;;;;;;20.50;76.14;99385.95;1696996;85;21097;-84
2022/08/10 00:25:22;;;;;;;6.37;4.08;;;;;;;20.48;76.05;99379.91;1697105;85;21015;-84
2022/08/10 00:27:48;;;;;;;5.97;3.55;;;;;;;20.42;76.07;99387.73;1697395;85;21121;-84
2022/08/10 00:30:15;;;;;;;6.72;3.50;;;;;;;20.39;75.95;99382.63;1715300;84;20986;-83
2022/08/10 00:32:42;;;;;;;6.87;3.50;;;;;;;20.35;76.71;99383.31;1696844;84;21022;-84
2022/08/10 00:35:08;;;;;;;6.22;3.62;;;;;;;20.37;76.32;99386.70;1697221;83;21000;-85
2022/08/10 00:37:35;;;;;;;7.67;4.00;;;;;;;20.35;76.84;99383.75;1698035;85;21002;-84
2022/08/10 00:40:04;;;;;;;7.53;3.90;;;;;;;20.38;76.52;99379.62;1698062;85;20988;-85
2022/08/10 00:42:30;;;;;;;5.35;3.80;;;;;;;20.39;77.30;99380.86;1715769;84;21021;-86
2022/08/10 00:44:57;;;;;;;8.38;3.60;;;;;;;20.41;76.92;99380.29;1715286;84;21023;-85
2022/08/10 00:47:24;;;;;;;6.90;3.98;;;;;;;20.43;77.65;99376.20;1709004;84;21021;-86
2022/08/10 00:49:50;;;;;;;5.37;3.67;;;;;;;20.45;77.17;99379.16;1716102;84;20994;-86
2022/08/10 00:52:19;;;;;;;5.95;3.47;;;;;;;20.45;77.14;99378.28;1697417;85;21085;-86
2022/08/10 00:54:47;;;;;;;6.55;4.00;;;;;;;20.45;77.09;99371.68;1684265;85;21010;-87
2022/08/10 00:57:14;;;;;;;8.28;3.87;;;;;;;20.47;77.23;99369.80;1693583;85;21058;-86
2022/08/10 00:59:41;;;;;;;5.83;3.47;;;;;;;20.53;77.14;99372.53;1681443;85;21274;-86
2022/08/10 01:02:07;;;;;;;7.62;3.70;;;;;;;20.54;77.10;99366.33;1710888;84;21023;-86
2022/08/10 01:04:34;;;;;;;7.53;3.83;;;;;;;20.58;77.49;99370.47;1666130;85;20982;-86
2022/08/10 01:07:12;;;;;;;8.65;3.58;;;;;;;20.57;77.04;99374.91;1697071;84;20996;-86
2022/08/10 01:09:53;;;;;;;6.75;3.67;;;;;;;20.57;77.14;99374.04;1713921;84;21022;-86
2022/08/10 01:12:31;;;;;;;6.60;3.35;;;;;;;20.59;77.05;99373.05;1692281;84;21014;-87
2022/08/10 01:15:17;;;;;;;9.50;4.08;;;;;;;20.61;76.85;99368.98;1697241;85;21115;-84
2022/08/10 01:18:14;;;;;;;6.03;3.92;;;;;;;20.55;76.96;99381.21;1709658;83;21174;-86
2022/08/10 01:21:17;;;;;;;6.17;3.62;;;;;;;20.44;77.39;99376.60;1745660;82;21068;-84
2022/08/10 01:23:47;;;;;;;;;;;;;;;20.37;77.51;99377.46;1630965;88;21116;-86
2022/08/10 01:26:48;;;;;;;6.33;4.05;;;;;;;20.35;78.18;99376.70;1709057;82;20140;-85
2022/08/10 01:29:54;;;;;;;6.12;3.85;;;;;;;20.38;77.53;99382.27;1744190;82;20987;-84
2022/08/10 01:32:38;;;;;;;6.25;4.03;;;;;;;20.39;77.75;99377.34;1744439;82;21069;-83
2022/08/10 01:35:10;;;;;;;6.75;4.25;;;;;;;20.42;77.67;99371.41;1745670;82;21014;-83
2022/08/10 01:37:44;;;;;;;7.58;4.20;;;;;;;20.46;77.66;99377.36;1726118;82;21001;-86
2022/08/10 01:40:13;;;;;;;7.97;3.90;;;;;;;20.47;77.73;99379.04;1745555;82;21552;-84
2022/08/10 01:42:44;;;;;;;5.85;3.72;;;;;;;20.49;77.93;99377.63;1745491;82;21051;-83
2022/08/10 01:45:12;;;;;;;5.62;3.80;;;;;;;20.42;78.06;99375.84;1727881;82;21063;-85
2022/08/10 01:50:38;;;;;;;6.30;3.98;;;;;;;20.36;78.00;99384.98;1726199;82;21215;-86
2022/08/10 01:53:13;;;;;;;8.78;4.45;;;;;;;20.32;78.08;99388.76;1727966;82;21031;-86
2022/08/10 01:55:40;;;;;;;7.42;4.35;;;;;;;20.32;78.37;99391.40;1724725;82;21054;-86
2022/08/10 01:58:10;;;;;;;5.78;4.00;;;;;;;20.33;78.65;99387.80;1691820;83;20990;-84
2022/08/10 02:00:39;;;;;;;7.55;4.15;;;;;;;20.35;78.17;99379.80;1736739;82;21085;-86
2022/08/10 02:03:08;;;;;;;6.62;4.30;;;;;;;20.33;78.69;99381.20;1746528;82;21004;-85
2022/08/10 02:05:38;;;;;;;6.40;4.42;;;;;;;20.34;78.45;99380.75;1729898;82;21055;-86
2022/08/10 02:08:10;;;;;;;9.05;4.75;;;;;;;20.34;78.99;99380.27;1746332;82;21066;-85
2022/08/10 02:10:39;;;;;;;7.12;4.67;;;;;;;20.34;78.22;99378.11;1746331;82;21054;-86
2022/08/10 02:13:09;;;;;;;7.22;4.40;;;;;;;20.33;78.75;99372.44;1719179;82;21093;-86
2022/08/10 02:15:38;;;;;;;8.55;4.78;;;;;;;20.33;78.72;99369.31;1746347;82;21010;-85
2022/08/10 02:18:07;;;;;;;7.00;4.17;;;;;;;20.33;78.89;99374.59;1746438;82;21037;-86
2022/08/10 02:20:42;;;;;;;9.38;4.45;;;;;;;20.32;78.65;99373.40;1719325;82;21006;-86
2022/08/10 02:23:17;;;;;;;8.23;4.40;;;;;;;20.29;78.93;99374.89;1746809;82;21076;-86
2022/08/10 02:25:44;;;;;;;6.92;4.40;;;;;;;20.32;78.89;99366.80;1726214;82;21019;-86
2022/08/10 02:28:18;;;;;;;7.00;4.95;;;;;;;20.35;78.59;99366.59;1746676;82;21011;-83
2022/08/10 02:30:46;;;;;;;7.55;4.28;;;;;;;20.35;78.36;99356.91;1746685;82;21059;-85
2022/08/10 02:33:16;;;;;;;8.23;5.08;;;;;;;20.35;78.67;99360.86;1746766;82;21079;-86
2022/08/10 02:35:46;;;;;;;8.73;4.75;;;;;;;20.38;78.51;99360.66;1746447;82;21062;-85
2022/08/10 02:38:19;;;;;;;8.78;5.80;;;;;;;20.37;78.65;99360.75;1747336;82;21058;-86
2022/08/10 02:40:50;;;;;;;7.58;5.10;;;;;;;20.34;78.72;99367.07;1730559;83;21015;-86
2022/08/10 02:43:31;;;;;;;9.73;5.08;;;;;;;20.24;79.49;99364.62;1730355;83;21113;-85
2022/08/10 02:46:13;;;;;;;8.13;5.12;;;;;;;20.24;79.00;99361.98;1745662;82;20969;-86
2022/08/10 02:48:46;;;;;;;9.63;5.75;;;;;;;20.18;78.74;99367.63;1746418;82;20995;-86
2022/08/10 02:51:20;;;;;;;8.28;5.03;;;;;;;20.13;79.35;99370.53;1746828;82;21084;-86
2022/08/10 02:53:51;;;;;;;9.85;4.83;;;;;;;20.12;78.25;99369.33;1746587;82;21007;-86
2022/08/10 02:56:25;;;;;;;8.98;4.47;;;;;;;20.06;79.23;99366.10;1746420;82;21030;-86
2022/08/10 02:59:00;;;;;;;11.33;5.62;;;;;;;20.06;79.55;99361.30;1715553;83;21056;-86
2022/08/10 03:01:31;;;;;;;10.63;5.37;;;;;;;20.05;79.56;99364.86;1716831;82;21050;-86
2022/08/10 03:04:05;;;;;;;8.23;5.28;;;;;;;20.05;79.88;99365.73;1736612;82;21043;-86
2022/08/10 03:06:39;;;;;;;8.48;5.10;;;;;;;20.05;80.12;99364.86;1736299;82;21014;-84
2022/08/10 03:09:09;;;;;;;10.08;4.90;;;;;;;20.07;80.19;99362.98;1721618;82;21010;-86
2022/08/10 03:11:38;;;;;;;7.95;5.15;;;;;;;20.09;79.96;99366.86;1730681;83;21020;-85
2022/08/10 03:14:07;;;;;;;8.18;5.30;;;;;;;20.08;80.60;99364.70;1715810;84;21070;-86
2022/08/10 03:16:36;;;;;;;8.03;4.97;;;;;;;20.05;81.20;99367.05;1725707;82;21094;-86
2022/08/10 03:19:05;;;;;;;9.90;5.05;;;;;;;20.05;80.53;99371.46;1747146;82;21066;-85
2022/08/10 03:21:33;;;;;;;7.85;5.03;;;;;;;20.02;80.77;99371.19;1747347;81;21014;-85
2022/08/10 03:24:02;;;;;;;8.68;5.20;;;;;;;20.06;80.55;99371.38;1717747;84;21049;-86
2022/08/10 03:26:33;;;;;;;7.25;4.62;;;;;;;20.10;80.76;99376.48;1736237;82;21000;-86
2022/08/10 03:29:04;;;;;;;9.23;5.72;;;;;;;20.13;80.19;99376.28;1722049;82;21101;-85
2022/08/10 03:31:32;;;;;;;10.70;5.17;;;;;;;20.11;80.07;99379.48;1747359;82;20938;-84
2022/08/10 03:34:01;;;;;;;8.85;5.45;;;;;;;20.13;80.08;99385.05;1747153;82;21000;-85
2022/08/10 03:36:28;;;;;;;8.65;5.28;;;;;;;20.08;80.22;99387.61;1746267;82;21023;-85
2022/08/10 03:38:55;;;;;;;8.05;5.15;;;;;;;20.05;80.36;99384.21;1747009;82;21014;-86
2022/08/10 03:41:39;;;;;;;9.38;5.17;;;;;;;20.06;80.59;99385.89;1746496;82;20967;-85
2022/08/10 03:44:08;;;;;;;10.50;4.62;;;;;;;20.11;80.59;99390.05;1746942;82;21023;-86
2022/08/10 03:46:40;;;;;;;8.75;4.83;;;;;;;20.13;80.01;99399.56;1747439;82;21026;-86
2022/08/10 03:49:08;;;;;;;10.90;5.17;;;;;;;20.10;80.06;99393.64;1747395;82;20975;-85
2022/08/10 03:51:36;;;;;;;8.85;4.30;;;;;;;20.09;80.45;99396.73;1722036;82;21083;-86
2022/08/10 03:54:03;;;;;;;11.35;5.65;;;;;;;20.08;80.02;99390.25;1724417;82;21019;-86
2022/08/10 03:56:31;;;;;;;8.40;5.10;;;;;;;20.04;79.72;99393.53;1729180;82;21034;-86
2022/08/10 03:58:58;;;;;;;8.70;5.12;;;;;;;19.98;80.42;99392.10;1747095;81;21067;-87
2022/08/10 04:01:26;;;;;;;12.33;5.70;;;;;;;19.87;79.65;99390.55;1746550;82;20983;-82
2022/08/10 04:03:53;;;;;;;9.70;5.25;;;;;;;19.81;80.13;99390.91;1728501;82;21059;-86
2022/08/10 04:06:20;;;;;;;9.93;5.12;;;;;;;19.75;79.85;99393.44;1724137;82;20977;-86
2022/08/10 04:08:46;;;;;;;11.73;5.08;;;;;;;19.73;79.73;99391.84;1747309;82;21007;-86
2022/08/10 04:11:13;;;;;;;8.28;4.35;;;;;;;19.63;79.95;99385.73;1747334;82;21015;-86
2022/08/10 04:13:40;;;;;;;8.10;5.00;;;;;;;19.61;80.70;99389.41;1746892;82;21071;-84
2022/08/10 04:16:07;;;;;;;6.75;4.50;;;;;;;19.62;80.76;99393.28;1747369;82;21074;-86
2022/08/10 04:18:33;;;;;;;8.63;5.42;;;;;;;19.63;80.98;99394.96;1747212;79;21021;-86
2022/08/10 04:21:17;;;;;;;10.53;4.70;;;;;;;19.65;81.14;99398.36;1747037;82;20992;-86
2022/08/10 04:23:47;;;;;;;8.70;4.60;;;;;;;19.66;80.50;99397.44;1719111;82;21140;-84
2022/08/10 04:26:15;;;;;;;6.67;4.40;;;;;;;19.68;80.57;99396.04;1717277;82;21018;-86
2022/08/10 04:28:43;;;;;;;8.18;4.55;;;;;;;19.70;80.67;99398.11;1717687;83;21050;-86
2022/08/10 04:31:13;;;;;;;8.85;4.50;;;;;;;19.73;80.60;99402.39;1714084;82;21066;-85
2022/08/10 04:33:44;;;;;;;9.85;4.40;;;;;;;19.80;80.80;99408.54;1730691;83;21026;-85
2022/08/10 04:36:13;;;;;;;10.05;4.40;;;;;;;19.85;81.15;99399.03;1746976;82;21007;-86
2022/08/10 04:38:40;;;;;;;9.10;4.25;;;;;;;19.88;80.74;99403.30;1746731;82;21031;-85
2022/08/10 04:41:08;;;;;;;10.15;4.28;;;;;;;19.91;80.39;99396.51;1746898;82;20936;-85
2022/08/10 04:43:35;;;;;;;9.03;4.70;;;;;;;19.92;80.58;99393.78;1719344;82;21364;-86
2022/08/10 04:46:02;;;;;;;8.70;4.28;;;;;;;19.97;80.27;99404.06;1746541;82;20985;-87
2022/08/10 04:48:28;;;;;;;11.03;3.70;;;;;;;19.98;80.35;99398.70;1746704;82;21004;-86
2022/08/10 04:50:55;;;;;;;8.78;4.37;;;;;;;20.05;80.53;99392.58;1720419;82;21042;-86
2022/08/10 04:53:22;;;;;;;8.25;4.22;;;;;;;20.16;80.31;99396.75;1732087;82;21048;-86
2022/08/10 04:55:48;;;;;;;7.30;4.40;;;;;;;20.26;79.96;99401.02;1739438;83;21025;-84
2022/08/10 04:58:15;;;;;;;8.33;4.53;;;;;;;20.30;79.74;99392.44;1750866;81;21034;-85
2022/08/10 05:00:42;;;;;;;7.40;4.87;;;;;;;20.35;79.22;99396.95;1744531;82;21429;-84
2022/08/10 05:03:08;;;;;;;8.33;4.67;;;;;;;20.35;78.96;99400.92;1735447;82;20999;-84
2022/08/10 05:05:35;;;;;;;7.25;4.60;;;;;;;20.35;78.85;99403.11;1688232;84;21542;-84
2022/08/10 05:08:02;;;;;;;7.15;4.47;;;;;;;20.41;78.78;99406.70;1712683;84;21002;-84
2022/08/10 05:10:29;;;;;;;9.18;4.37;;;;;;;20.37;78.75;99403.86;1713745;83;21072;-85
2022/08/10 05:12:56;;;;;;;8.00;3.95;;;;;;;20.37;79.00;99404.31;1724861;83;21043;-85
2022/08/10 05:15:23;;;;;;;7.92;3.60;;;;;;;20.39;79.10;99404.62;1745725;82;21038;-85
2022/08/10 05:17:50;;;;;;;7.75;4.35;;;;;;;20.43;78.62;99399.53;1711861;83;21063;-84
2022/08/10 05:20:16;;;;;;;9.35;4.30;;;;;;;20.49;78.43;99404.04;1745673;82;21020;-84
2022/08/10 05:22:45;;;;;;;8.68;4.03;;;;;;;20.53;78.46;99406.87;1746012;82;21057;-85
2022/08/10 05:25:16;;;;;;;9.28;4.60;;;;;;;20.60;78.28;99409.55;1746081;82;20995;-84
2022/08/10 05:27:44;;;;;;;7.90;4.08;;;;;;;20.64;78.53;99404.45;1726466;82;21041;-84
2022/08/10 05:30:18;;;;;;;6.60;4.20;;;;;;;20.68;78.30;99405.13;1717878;82;21045;-85
2022/08/10 05:32:45;;;;;;;7.80;4.40;;;;;;;20.64;78.26;99404.45;1745711;82;21019;-84
2022/08/10 05:35:11;;;;;;;9.63;4.10;;;;;;;20.65;78.20;99408.78;1722945;82;21094;-84
2022/08/10 05:37:39;;;;;;;11.78;4.28;;;;;;;20.62;78.39;99397.94;1715393;84;20990;-84
2022/08/10 05:40:07;;;;;;;7.17;4.17;;;;;;;20.68;78.38;99402.48;1727180;82;21046;-85
2022/08/10 05:42:35;;;;;;;7.10;4.37;;;;;;;20.74;78.31;99402.09;1744224;82;21089;-84
2022/08/10 05:45:03;;;;;;;7.22;4.72;;;;;;;20.79;78.12;99404.84;1714936;84;20944;-84
2022/08/10 05:47:30;;;;;;;6.70;4.17;;;;;;;20.83;77.88;99407.66;1745350;82;21038;-84
2022/08/10 05:49:57;;;;;;;9.35;4.75;;;;;;;20.84;77.52;99413.30;1738361;82;21488;-84
2022/08/10 05:52:23;;;;;;;8.63;4.75;;;;;;;20.90;77.23;99409.44;1738349;82;21123;-85
2022/08/10 05:54:50;;;;;;;7.62;3.90;;;;;;;20.93;76.81;99407.06;1751252;81;22056;-80
2022/08/10 05:57:19;;;;;;;7.60;4.70;;;;;;;20.91;76.95;99401.03;1717136;83;21047;-81
2022/08/10 05:59:51;;;;;;;6.65;4.30;;;;;;;20.95;76.54;99400.76;1710873;83;21046;-80
2022/08/10 06:02:35;;;;;;;7.58;4.08;;;;;;;20.96;76.53;99398.95;1744807;81;21065;-80
2022/08/10 06:05:13;;;;;;;7.33;4.33;;;;;;;21.00;76.39;99409.23;1682652;84;20984;-81
2022/08/10 06:07:45;;;;;;;9.03;4.15;;;;;;;20.97;76.11;99404.16;1732399;81;21091;-80
2022/08/10 06:10:14;;;;;;;5.65;3.70;;;;;;;21.02;76.37;99402.05;1732975;82;21107;-80
2022/08/10 06:12:42;;;;;;;9.90;3.95;;;;;;;21.04;76.38;99413.86;1744139;81;21019;-85
2022/08/10 06:15:10;;;;;;;6.97;3.65;;;;;;;21.06;76.37;99415.92;1735686;82;21063;-85
2022/08/10 06:17:38;;;;;;;8.28;4.08;;;;;;;21.14;76.50;99412.80;1734071;82;21022;-83
2022/08/10 06:20:06;;;;;;;8.38;4.28;;;;;;;21.16;76.50;99414.87;1735071;78;21026;-85
2022/08/10 06:22:34;;;;;;;5.95;3.60;;;;;;;21.15;76.62;99412.71;1742060;79;20984;-85
2022/08/10 06:25:02;;;;;;;10.50;4.17;;;;;;;21.21;76.65;99412.31;1733488;82;21106;-84
2022/08/10 06:27:29;;;;;;;8.70;3.95;;;;;;;21.37;76.43;99412.17;1739765;82;21505;-84
2022/08/10 06:29:57;;;;;;;6.62;4.05;;;;;;;21.48;76.39;99408.86;1736055;82;21002;-86
2022/08/10 06:32:27;;;;;;;7.70;3.70;;;;;;;21.63;76.27;99414.95;1716363;82;21026;-85
2022/08/10 06:34:57;;;;;;;12.15;4.35;;;;;;;21.75;75.37;99408.84;1738620;82;21019;-86
2022/08/10 06:37:26;;;;;;;6.20;3.72;;;;;;;21.85;74.80;99410.41;1717565;82;21055;-85
2022/08/10 06:39:54;;;;;;;9.23;3.90;;;;;;;21.91;74.39;99415.77;1732577;82;21090;-85
2022/08/10 06:42:33;;;;;;;7.62;3.72;;;;;;;21.96;74.11;99412.33;1743236;81;21043;-86
2022/08/10 06:45:14;;;;;;;9.93;4.25;;;;;;;22.04;73.66;99416.17;1728367;82;21018;-86
2022/08/10 06:47:52;;;;;;;7.40;3.72;;;;;;;22.14;72.80;99419.02;1702730;84;21035;-86
2022/08/10 06:50:32;;;;;;;7.97;4.08;;;;;;;22.20;72.14;99418.62;1739725;82;20985;-83
2022/08/10 06:53:01;;;;;;;8.18;4.15;;;;;;;22.27;72.41;99416.43;1714009;83;21079;-85
2022/08/10 06:55:30;;;;;;;7.45;4.17;;;;;;;22.37;71.74;99416.16;1729391;82;20983;-85
2022/08/10 06:58:00;;;;;;;8.48;3.52;;;;;;;22.39;72.04;99415.58;1745474;81;21046;-85
2022/08/10 07:00:29;;;;;;;5.28;4.00;;;;;;;22.42;70.57;99417.16;1705263;84;20986;-86
2022/08/10 07:03:01;;;;;;;6.15;3.80;;;;;;;22.39;71.21;99414.74;1743163;81;21069;-85
2022/08/10 07:05:30;;;;;;;6.80;4.00;;;;;;;22.37;71.50;99416.16;1744211;82;20955;-85
2022/08/10 07:08:00;;;;;;;9.30;4.40;;;;;;;22.43;70.97;99420.20;1743869;81;21253;-85
2022/08/10 07:10:28;;;;;;;7.78;3.80;;;;;;;22.40;71.32;99416.42;1742796;81;21007;-85
2022/08/10 07:12:59;;;;;;;8.05;4.20;;;;;;;22.47;71.40;99420.84;1741264;82;21023;-85
2022/08/10 07:15:27;;;;;;;9.18;4.00;;;;;;;22.58;71.48;99422.24;1713742;83;21008;-84
2022/08/10 07:17:56;;;;;;;6.15;3.70;;;;;;;22.66;70.96;99421.27;1736388;81;21054;-86
2022/08/10 07:20:25;;;;;;;8.78;3.95;;;;;;;22.74;70.46;99422.89;1735257;82;21030;-85
2022/08/10 07:22:53;;;;;;;9.58;4.78;;;;;;;22.91;70.73;99420.36;1745744;81;21003;-86
2022/08/10 07:25:24;;;;;;;9.45;4.62;;;;;;;23.09;68.78;99424.86;1739102;82;21055;-85
2022/08/10 07:27:54;;;;;;;8.63;4.62;;;;;;;23.19;69.92;99425.88;1722477;82;21032;-86
2022/08/10 07:30:21;;;;;;;8.35;4.12;;;;;;;23.35;69.58;99427.44;1714234;82;21031;-84
2022/08/10 07:32:50;;;;;;;6.87;3.90;;;;;;;23.42;69.08;99420.73;1740945;82;21003;-85
2022/08/10 07:35:20;;;;;;;7.05;4.47;;;;;;;23.46;68.45;99418.22;1735459;82;21054;-87
2022/08/10 07:37:50;;;;;;;7.83;4.70;;;;;;;23.47;67.75;99420.39;1739548;81;21026;-84
2022/08/10 07:40:20;;;;;;;8.50;4.33;;;;;;;23.40;67.63;99424.81;1734276;82;21052;-84
2022/08/10 07:42:51;;;;;;;6.97;4.60;;;;;;;23.47;67.20;99426.53;1735527;82;20992;-88
2022/08/10 07:45:18;;;;;;;6.33;4.67;;;;;;;23.36;67.39;99415.88;1734731;82;21318;-86
2022/08/10 07:48:12;;;;;;;5.85;4.20;;;;;;;23.37;67.43;99429.49;1737512;82;21016;-86
2022/08/10 07:50:40;;;;;;;6.87;4.62;;;;;;;23.28;67.59;99424.39;1737270;82;20980;-86
2022/08/10 07:53:12;;;;;;;6.87;4.30;;;;;;;23.29;67.59;99417.27;1740656;81;21041;-88
2022/08/10 07:55:43;;;;;;;8.80;4.35;;;;;;;23.35;67.59;99420.80;1723284;82;21015;-87
2022/08/10 07:58:12;;;;;;;8.05;4.72;;;;;;;23.37;67.80;99416.23;1726813;82;21004;-87
2022/08/10 08:00:40;;;;;;;13.93;5.37;;;;;;;23.45;67.72;99415.19;1743005;82;20996;-88
2022/08/10 08:03:09;;;;;;;9.80;4.85;;;;;;;23.50;67.54;99412.22;1735466;82;21027;-88
2022/08/10 08:05:36;;;;;;;10.13;4.37;;;;;;;23.60;67.01;99411.41;1744295;82;21039;-88
2022/08/10 08:08:06;;;;;;;7.53;4.22;;;;;;;23.62;67.24;99420.59;1706127;84;21087;-87
2022/08/10 08:10:34;;;;;;;7.17;3.98;;;;;;;23.74;67.22;99417.51;1746452;82;21042;-87
2022/08/10 08:13:02;;;;;;;6.75;4.55;;;;;;;23.72;67.29;99412.30;1745134;82;21548;-86
2022/08/10 08:15:30;;;;;;;7.85;4.60;;;;;;;23.90;66.42;99410.11;1722889;82;21031;-86
2022/08/10 08:17:57;;;;;;;7.55;4.30;;;;;;;23.91;66.83;99415.77;1742333;82;21096;-87
2022/08/10 08:20:25;;;;;;;8.30;4.80;;;;;;;24.04;66.75;99418.85;1750766;80;21303;-87
2022/08/10 08:22:52;;;;;;;7.22;4.95;;;;;;;24.16;66.74;99421.90;1750550;82;21027;-87
2022/08/10 08:25:20;;;;;;;9.20;5.03;;;;;;;24.29;66.32;99417.34;1717528;83;20991;-88
2022/08/10 08:27:52;;;;;;;6.25;4.50;;;;;;;24.42;65.72;99414.57;1729094;83;20982;-87
2022/08/10 08:30:17;;;;;;;7.90;4.72;;;;;;;24.35;65.46;99414.67;1721109;83;20995;-86
2022/08/10 08:32:45;;;;;;;7.25;4.62;;;;;;;24.31;65.02;99412.76;1736441;82;21147;-86
2022/08/10 08:35:31;;;;;;;6.85;4.80;;;;;;;24.30;65.00;99411.05;1732567;83;20996;-86
2022/08/10 08:38:00;;;;;;;6.62;4.70;;;;;;;24.33;64.96;99405.97;1720953;83;21000;-86
2022/08/10 08:40:35;;;;;;;11.00;4.78;;;;;;;24.39;65.16;99411.68;1731851;83;21019;-87
2022/08/10 08:43:30;;;;;;;7.50;4.60;;;;;;;24.51;65.11;99417.89;1732498;82;21066;-87
2022/08/10 08:46:31;;;;;;;9.05;4.87;;;;;;;24.57;64.63;99421.39;1734533;82;21024;-87
2022/08/10 08:49:29;;;;;;;7.37;4.37;;;;;;;24.59;63.45;99423.45;1696231;82;21032;-85
2022/08/10 08:52:25;;;;;;;8.35;4.42;;;;;;;24.62;64.62;99418.37;1720137;83;21089;-86
2022/08/10 08:55:29;;;;;;;8.60;4.60;;;;;;;24.69;63.54;99415.60;1678955;84;21082;-86
2022/08/10 08:58:23;;;;;;;9.45;4.10;;;;;;;24.74;63.95;99421.38;1720802;82;20984;-86
2022/08/10 09:01:32;;;;;;;10.32;4.33;;;;;;;24.83;63.31;99419.83;1722204;83;21066;-86
2022/08/10 09:04:42;;;;;;;6.90;4.35;;;;;;;24.85;62.86;99420.55;1721257;82;20995;-84
2022/08/10 09:07:25;;;;;;;10.03;4.65;;;;;;;24.89;63.14;99415.81;1748234;80;21059;-86
2022/08/10 09:10:15;;;;;;;8.33;4.67;;;;;;;24.97;62.64;99417.41;1720573;83;21038;-86
2022/08/10 09:13:00;;;;;;;6.25;4.17;;;;;;;25.01;62.76;99410.87;1737259;82;21014;-87
2022/08/10 09:15:46;;;;;;;9.23;4.55;;;;;;;25.06;61.95;99414.48;1705406;83;21043;-84
2022/08/10 09:18:49;;;;;;;7.75;4.33;;;;;;;25.04;61.89;99409.27;1719553;82;21015;-83
2022/08/10 09:21:36;;;;;;;7.85;4.28;;;;;;;25.11;61.63;99401.63;1709661;83;21047;-85
2022/08/10 09:24:13;;;;;;;6.53;4.37;;;;;;;25.31;61.19;99404.08;1718191;82;21059;-85
2022/08/10 09:26:48;;;;;;;8.28;4.50;;;;;;;25.46;61.36;99400.13;1694635;83;21039;-87
2022/08/10 09:29:28;;;;;;;8.03;4.55;;;;;;;25.44;60.62;99404.73;1727701;83;21605;-85
2022/08/10 09:32:16;;;;;;;8.33;4.53;;;;;;;25.50;60.48;99408.72;1714646;82;21075;-83
2022/08/10 09:35:05;;;;;;;10.15;4.35;;;;;;;25.45;60.45;99398.45;1712338;83;21020;-86
2022/08/10 09:37:56;;;;;;;8.70;4.58;;;;;;;25.49;60.64;99394.57;1712348;83;21067;-87
2022/08/10 09:40:43;;;;;;;8.05;4.80;;;;;;;25.64;60.18;99383.62;1694642;83;20945;-86
2022/08/10 09:43:21;;;;;;;6.72;4.40;;;;;;;25.53;59.35;99393.34;1713236;83;21028;-86
2022/08/10 09:46:13;;;;;;;6.08;4.22;;;;;;;25.49;59.52;99388.41;1716755;83;21012;-86
2022/08/10 09:48:49;;;;;;;7.80;4.45;;;;;;;25.46;59.25;99384.16;1736806;82;21000;-86
2022/08/10 09:51:59;;;;;;;8.13;4.17;;;;;;;25.55;59.61;99385.23;1711415;83;21066;-85
2022/08/10 09:55:04;;;;;;;5.40;3.80;;;;;;;25.61;59.39;99378.08;1739442;81;21044;-85
2022/08/10 09:57:42;;;;;;;7.45;4.42;;;;;;;25.76;59.24;99374.11;1725216;83;21069;-88
2022/08/10 10:00:13;;;;;;;7.15;4.42;;;;;;;25.82;58.25;99367.42;1730135;83;21128;-86
2022/08/10 10:02:54;;;;;;;6.87;4.12;;;;;;;25.92;58.87;99363.03;1723552;82;21083;-87
2022/08/10 10:05:38;;;;;;;8.73;4.35;;;;;;;26.12;56.91;99357.84;1726927;83;21015;-85
2022/08/10 10:08:42;;;;;;;6.12;4.37;;;;;;;25.93;57.63;99341.27;1725801;83;21112;-85
2022/08/10 10:11:31;;;;;;;7.15;4.42;;;;;;;26.05;57.47;99353.53;1713752;83;21011;-86
2022/08/10 10:14:08;;;;;;;10.03;4.55;;;;;;;26.12;56.73;99347.18;1714377;83;21016;-86
2022/08/10 10:16:46;;;;;;;11.53;4.28;;;;;;;26.25;56.94;99349.66;1721624;82;21046;-86
2022/08/10 10:19:46;;;;;;;7.45;4.30;;;;;;;26.29;55.66;99347.91;1722032;81;21072;-85
2022/08/10 10:22:27;;;;;;;6.60;3.62;;;;;;;26.38;56.48;99343.59;1709051;83;21024;-85
2022/08/10 10:25:14;;;;;;;6.62;3.30;;;;;;;26.61;56.34;99346.13;1709087;82;21044;-86
2022/08/10 10:28:10;;;;;;;5.33;3.52;;;;;;;26.88;55.94;99352.15;1750618;80;21110;-86
2022/08/10 10:31:03;;;;;;;8.80;3.67;;;;;;;27.14;55.62;99349.34;1733365;82;21026;-85
2022/08/10 10:34:00;;;;;;;6.72;3.98;;;;;;;27.37;54.58;99347.77;1721460;80;21011;-84
2022/08/10 10:36:30;;;;;;;7.25;3.70;;;;;;;27.49;54.24;99339.13;1709432;79;21211;-86
2022/08/10 10:38:59;;;;;;;7.08;3.75;;;;;;;27.57;53.46;99336.59;1653168;87;21043;-84
2022/08/10 10:41:36;;;;;;;4.97;3.70;;;;;;;27.55;52.15;99338.56;1649502;85;21079;-84
2022/08/10 10:44:19;;;;;;;5.37;4.20;;;;;;;27.35;51.93;99329.21;1620290;87;21086;-84
2022/08/10 10:47:04;;;;;;;;;;;;;;;27.38;52.86;99332.11;1651413;85;21028;-86
2022/08/10 10:49:48;;;;;;;5.70;3.70;;;;;;;27.29;50.67;99335.11;1651109;85;20115;-84
2022/08/10 10:52:37;;;;;;;5.42;3.83;;;;;;;27.18;52.17;99321.89;1621319;87;21119;-83
2022/08/10 10:55:31;;;;;;;6.60;3.70;;;;;;;27.15;52.72;99318.98;1621532;87;22159;-85
2022/08/10 10:58:26;;;;;;;15.05;4.37;;;;;;;27.16;52.58;99311.34;1619967;85;21028;-84
2022/08/10 11:01:21;;;;;;;9.23;3.65;;;;;;;27.10;52.60;99306.57;1618110;87;21674;-87
2022/08/10 11:04:08;;;;;;;6.05;3.95;;;;;;;27.09;52.70;99310.20;1647055;86;21130;-85
2022/08/10 11:07:01;;;;;;;5.17;3.65;;;;;;;27.19;52.84;99308.88;1614490;86;21087;-84
2022/08/10 11:09:48;;;;;;;6.92;3.80;;;;;;;27.25;52.41;99308.85;1652725;85;21074;-85
2022/08/10 11:12:38;;;;;;;5.40;3.80;;;;;;;27.23;52.05;99305.45;1648603;86;21055;-87
2022/08/10 11:15:29;;;;;;;7.97;3.83;;;;;;;27.24;51.55;99308.02;1628357;87;21680;-84
2022/08/10 11:18:04;;;;;;;7.20;3.70;;;;;;;27.31;50.91;99305.62;1603234;87;21094;-84
2022/08/10 11:20:39;;;;;;;16.20;4.42;;;;;;;27.40;51.93;99310.59;1643586;86;21589;-83
2022/08/10 11:23:34;;;;;;;4.83;3.37;;;;;;;27.63;52.12;99303.14;1612291;88;21106;-84
2022/08/10 11:26:21;;;;;;;6.47;3.67;;;;;;;27.78;51.76;99289.20;1644178;85;21052;-84
2022/08/10 11:29:15;;;;;;;5.78;3.42;;;;;;;28.14;51.32;99293.91;1652839;86;21049;-84
2022/08/10 11:31:47;;;;;;;5.78;3.87;;;;;;;28.36;49.13;99293.53;1645149;86;21082;-84
2022/08/10 11:34:25;;;;;;;4.62;3.15;;;;;;;28.58;49.84;99296.84;1643876;85;21111;-84
2022/08/10 11:37:23;;;;;;;7.28;3.37;;;;;;;28.66;49.12;99292.09;1648738;86;21115;-84
2022/08/10 11:40:19;;;;;;;6.00;3.62;;;;;;;28.79;48.02;99295.73;1636135;86;21055;-84
2022/08/10 11:43:22;;;;;;;7.28;3.40;;;;;;;28.78;48.66;99299.41;1641108;85;21083;-86
2022/08/10 11:46:03;;;;;;;5.62;3.87;;;;;;;28.71;47.99;99297.34;1647558;85;21011;-86
2022/08/10 11:48:53;;;;;;;6.08;3.20;;;;;;;28.61;46.95;99301.04;1645566;87;21103;-86
2022/08/10 11:51:35;;;;;;;5.10;3.47;;;;;;;28.60;48.08;99292.69;1677323;84;21173;-85
2022/08/10 11:54:18;;;;;;;5.42;3.77;;;;;;;28.81;47.73;99287.92;1681152;84;21317;-86
2022/08/10 11:56:52;;;;;;;11.20;5.30;;;;;;;29.03;47.83;99287.11;1670644;85;21007;-85
2022/08/10 12:02:14;;;;;;;6.85;3.62;;;;;;;29.41;45.42;99281.98;1681157;84;21103;-84
2022/08/10 12:04:44;;;;;;;5.75;3.80;;;;;;;29.39;46.30;99288.00;1673728;84;20976;-84
2022/08/10 12:07:13;;;;;;;5.65;3.70;;;;;;;29.43;46.65;99282.67;1675852;84;21915;-84
2022/08/10 12:09:42;;;;;;;6.83;4.05;;;;;;;29.45;44.97;99282.02;1675337;85;21027;-86
2022/08/10 12:12:10;;;;;;;7.60;3.70;;;;;;;29.26;46.59;99284.35;1685985;84;21095;-84
2022/08/10 12:14:59;;;;;;;7.00;3.35;;;;;;;29.23;45.68;99279.83;1679467;84;21020;-87